sensor_id;sensor_type;location;lat;lon;timestamp;P1;durP1;ratioP1;P2;durP2;ratioP2
49962;SDS011;36180;57.678;11.910;2023-03-19T00:01:47;25.77;;;10.95;;
49962;SDS011;36180;57.678;11.910;2023-03-19T00:04:14;32.30;;;12.40;;
49962;SDS011;36180;57.678;11.910;2023-03-19T00:06:43;34.47;;;13.02;;
49962;SDS011;36180;57.678;11.910;2023-03-19T00:09:10;24.52;;;10.32;;
49962;SDS011;36180;57.678;11.910;2023-03-19T00:11:37;21.38;;;10.10;;
49962;SDS011;36180;57.678;11.910;2023-03-19T00:14:05;29.67;;;11.18;;
49962;SDS011;36180;57.678;11.910;2023-03-19T00:16:32;24.15;;;10.82;;
49962;SDS011;36180;57.678;11.910;2023-03-19T00:18:59;23.05;;;10.80;;
49962;SDS011;36180;57.678;11.910;2023-03-19T00:21:26;23.25;;;10.27;;
49962;SDS011;36180;57.678;11.910;2023-03-19T00:23:55;25.95;;;10.00;;
49962;SDS011;36180;57.678;11.910;2023-03-19T00:26:25;14.53;;;8.07;;
49962;SDS011;36180;57.678;11.910;2023-03-19T00:28:52;21.25;;;9.07;;
49962;SDS011;36180;57.678;11.910;2023-03-19T00:31:20;13.80;;;6.95;;
49962;SDS011;36180;57.678;11.910;2023-03-19T00:33:47;20.65;;;9.93;;
49962;SDS011;36180;57.678;11.910;2023-03-19T00:36:15;21.88;;;9.85;;
49962;SDS011;36180;57.678;11.910;2023-03-19T00:38:42;21.60;;;10.32;;
49962;SDS011;36180;57.678;11.910;2023-03-19T00:41:11;27.52;;;12.32;;
49962;SDS011;36180;57.678;11.910;2023-03-19T00:43:38;25.52;;;13.27;;
49962;SDS011;36180;57.678;11.910;2023-03-19T00:46:05;35.92;;;13.93;;
49962;SDS011;36180;57.678;11.910;2023-03-19T00:48:32;34.65;;;13.48;;
49962;SDS011;36180;57.678;11.910;2023-03-19T00:51:01;32.80;;;13.95;;
49962;SDS011;36180;57.678;11.910;2023-03-19T00:53:28;34.83;;;14.02;;
49962;SDS011;36180;57.678;11.910;2023-03-19T00:55:55;38.90;;;15.10;;
49962;SDS011;36180;57.678;11.910;2023-03-19T00:58:24;40.58;;;14.77;;
49962;SDS011;36180;57.678;11.910;2023-03-19T01:00:51;42.60;;;14.82;;
49962;SDS011;36180;57.678;11.910;2023-03-19T01:03:19;46.00;;;14.45;;
49962;SDS011;36180;57.678;11.910;2023-03-19T01:05:46;39.35;;;13.82;;
49962;SDS011;36180;57.678;11.910;2023-03-19T01:08:14;31.92;;;13.73;;
49962;SDS011;36180;57.678;11.910;2023-03-19T01:10:41;39.20;;;13.60;;
49962;SDS011;36180;57.678;11.910;2023-03-19T01:13:09;37.33;;;13.10;;
49962;SDS011;36180;57.678;11.910;2023-03-19T01:15:38;34.58;;;12.90;;
49962;SDS011;36180;57.678;11.910;2023-03-19T01:18:07;29.55;;;11.90;;
49962;SDS011;36180;57.678;11.910;2023-03-19T01:20:35;34.35;;;11.32;;
49962;SDS011;36180;57.678;11.910;2023-03-19T01:23:03;36.63;;;11.23;;
49962;SDS011;36180;57.678;11.910;2023-03-19T01:25:30;31.27;;;11.20;;
49962;SDS011;36180;57.678;11.910;2023-03-19T01:28:02;41.53;;;12.20;;
49962;SDS011;36180;57.678;11.910;2023-03-19T01:30:30;45.38;;;12.02;;
49962;SDS011;36180;57.678;11.910;2023-03-19T01:33:10;45.40;;;12.65;;
49962;SDS011;36180;57.678;11.910;2023-03-19T01:35:55;40.78;;;11.50;;
49962;SDS011;36180;57.678;11.910;2023-03-19T01:38:28;42.88;;;12.15;;
49962;SDS011;36180;57.678;11.910;2023-03-19T01:41:00;32.88;;;11.07;;
49962;SDS011;36180;57.678;11.910;2023-03-19T01:43:28;45.90;;;11.65;;
49962;SDS011;36180;57.678;11.910;2023-03-19T01:46:06;41.92;;;12.75;;
49962;SDS011;36180;57.678;11.910;2023-03-19T01:48:53;39.17;;;12.88;;
49962;SDS011;36180;57.678;11.910;2023-03-19T01:51:24;46.28;;;13.45;;
49962;SDS011;36180;57.678;11.910;2023-03-19T01:54:06;37.30;;;13.25;;
49962;SDS011;36180;57.678;11.910;2023-03-19T01:56:50;39.92;;;13.65;;
49962;SDS011;36180;57.678;11.910;2023-03-19T01:59:26;32.95;;;12.95;;
49962;SDS011;36180;57.678;11.910;2023-03-19T02:02:11;39.55;;;12.73;;
49962;SDS011;36180;57.678;11.910;2023-03-19T02:04:42;29.80;;;12.73;;
49962;SDS011;36180;57.678;11.910;2023-03-19T02:07:11;37.80;;;12.50;;
49962;SDS011;36180;57.678;11.910;2023-03-19T02:09:40;37.85;;;12.75;;
49962;SDS011;36180;57.678;11.910;2023-03-19T02:12:07;41.40;;;14.27;;
49962;SDS011;36180;57.678;11.910;2023-03-19T02:14:35;37.88;;;14.93;;
49962;SDS011;36180;57.678;11.910;2023-03-19T02:17:02;45.65;;;14.45;;
49962;SDS011;36180;57.678;11.910;2023-03-19T02:19:30;41.08;;;15.00;;
49962;SDS011;36180;57.678;11.910;2023-03-19T02:22:05;40.20;;;15.00;;
49962;SDS011;36180;57.678;11.910;2023-03-19T02:24:34;43.47;;;15.15;;
49962;SDS011;36180;57.678;11.910;2023-03-19T02:27:12;36.53;;;12.82;;
49962;SDS011;36180;57.678;11.910;2023-03-19T02:29:44;50.58;;;14.98;;
49962;SDS011;36180;57.678;11.910;2023-03-19T02:32:11;53.92;;;14.70;;
49962;SDS011;36180;57.678;11.910;2023-03-19T02:34:39;53.95;;;14.85;;
49962;SDS011;36180;57.678;11.910;2023-03-19T02:37:09;45.38;;;14.35;;
49962;SDS011;36180;57.678;11.910;2023-03-19T02:39:40;48.25;;;13.82;;
49962;SDS011;36180;57.678;11.910;2023-03-19T02:42:13;53.38;;;14.80;;
49962;SDS011;36180;57.678;11.910;2023-03-19T02:44:41;48.63;;;14.98;;
49962;SDS011;36180;57.678;11.910;2023-03-19T02:47:09;53.55;;;14.90;;
49962;SDS011;36180;57.678;11.910;2023-03-19T02:49:36;40.28;;;14.00;;
49962;SDS011;36180;57.678;11.910;2023-03-19T02:52:03;51.20;;;14.70;;
49962;SDS011;36180;57.678;11.910;2023-03-19T02:54:30;41.60;;;14.10;;
49962;SDS011;36180;57.678;11.910;2023-03-19T02:56:57;40.72;;;13.73;;
49962;SDS011;36180;57.678;11.910;2023-03-19T02:59:26;42.53;;;13.45;;
49962;SDS011;36180;57.678;11.910;2023-03-19T03:01:53;36.42;;;12.57;;
49962;SDS011;36180;57.678;11.910;2023-03-19T03:04:20;36.38;;;11.95;;
49962;SDS011;36180;57.678;11.910;2023-03-19T03:06:47;33.85;;;11.93;;
49962;SDS011;36180;57.678;11.910;2023-03-19T03:09:14;31.55;;;11.23;;
49962;SDS011;36180;57.678;11.910;2023-03-19T03:11:42;28.70;;;10.98;;
49962;SDS011;36180;57.678;11.910;2023-03-19T03:14:09;28.63;;;10.40;;
49962;SDS011;36180;57.678;11.910;2023-03-19T03:16:38;32.53;;;11.23;;
49962;SDS011;36180;57.678;11.910;2023-03-19T03:19:05;33.95;;;11.10;;
49962;SDS011;36180;57.678;11.910;2023-03-19T03:21:33;31.25;;;11.38;;
49962;SDS011;36180;57.678;11.910;2023-03-19T03:24:00;27.23;;;11.00;;
49962;SDS011;36180;57.678;11.910;2023-03-19T03:26:28;30.20;;;11.23;;
49962;SDS011;36180;57.678;11.910;2023-03-19T03:28:55;25.65;;;9.98;;
49962;SDS011;36180;57.678;11.910;2023-03-19T03:31:22;28.70;;;10.40;;
49962;SDS011;36180;57.678;11.910;2023-03-19T03:33:51;26.60;;;11.25;;
49962;SDS011;36180;57.678;11.910;2023-03-19T03:36:18;30.63;;;11.43;;
49962;SDS011;36180;57.678;11.910;2023-03-19T03:38:45;29.15;;;11.93;;
49962;SDS011;36180;57.678;11.910;2023-03-19T03:41:14;26.77;;;9.65;;
49962;SDS011;36180;57.678;11.910;2023-03-19T03:43:41;37.30;;;11.50;;
49962;SDS011;36180;57.678;11.910;2023-03-19T03:46:08;26.15;;;11.10;;
49962;SDS011;36180;57.678;11.910;2023-03-19T03:48:35;26.10;;;11.18;;
49962;SDS011;36180;57.678;11.910;2023-03-19T03:51:04;27.35;;;10.70;;
49962;SDS011;36180;57.678;11.910;2023-03-19T03:53:31;27.30;;;10.77;;
49962;SDS011;36180;57.678;11.910;2023-03-19T03:56:00;24.88;;;10.52;;
49962;SDS011;36180;57.678;11.910;2023-03-19T03:58:28;29.38;;;11.57;;
49962;SDS011;36180;57.678;11.910;2023-03-19T04:00:55;29.67;;;10.38;;
49962;SDS011;36180;57.678;11.910;2023-03-19T04:03:23;30.38;;;10.95;;
49962;SDS011;36180;57.678;11.910;2023-03-19T04:05:51;20.20;;;10.23;;
49962;SDS011;36180;57.678;11.910;2023-03-19T04:08:21;25.52;;;10.13;;
49962;SDS011;36180;57.678;11.910;2023-03-19T04:10:48;23.23;;;10.25;;
49962;SDS011;36180;57.678;11.910;2023-03-19T04:13:16;25.83;;;10.02;;
49962;SDS011;36180;57.678;11.910;2023-03-19T04:15:43;26.25;;;10.43;;
49962;SDS011;36180;57.678;11.910;2023-03-19T04:18:12;20.10;;;8.98;;
49962;SDS011;36180;57.678;11.910;2023-03-19T04:20:40;21.77;;;9.68;;
49962;SDS011;36180;57.678;11.910;2023-03-19T04:23:07;22.75;;;9.23;;
49962;SDS011;36180;57.678;11.910;2023-03-19T04:25:38;29.60;;;10.32;;
49962;SDS011;36180;57.678;11.910;2023-03-19T04:28:06;23.23;;;9.93;;
49962;SDS011;36180;57.678;11.910;2023-03-19T04:30:34;26.55;;;10.43;;
49962;SDS011;36180;57.678;11.910;2023-03-19T04:33:02;21.52;;;9.93;;
49962;SDS011;36180;57.678;11.910;2023-03-19T04:35:29;18.52;;;9.20;;
49962;SDS011;36180;57.678;11.910;2023-03-19T04:37:57;24.05;;;9.40;;
49962;SDS011;36180;57.678;11.910;2023-03-19T04:40:24;26.88;;;9.90;;
49962;SDS011;36180;57.678;11.910;2023-03-19T04:42:53;19.35;;;9.48;;
49962;SDS011;36180;57.678;11.910;2023-03-19T04:45:29;20.38;;;9.75;;
49962;SDS011;36180;57.678;11.910;2023-03-19T04:47:57;19.23;;;9.88;;
49962;SDS011;36180;57.678;11.910;2023-03-19T04:50:24;24.33;;;9.80;;
49962;SDS011;36180;57.678;11.910;2023-03-19T04:52:52;19.33;;;9.25;;
49962;SDS011;36180;57.678;11.910;2023-03-19T04:55:21;18.95;;;9.13;;
49962;SDS011;36180;57.678;11.910;2023-03-19T04:58:06;18.30;;;9.55;;
49962;SDS011;36180;57.678;11.910;2023-03-19T05:00:35;21.73;;;9.00;;
49962;SDS011;36180;57.678;11.910;2023-03-19T05:03:03;19.25;;;9.05;;
49962;SDS011;36180;57.678;11.910;2023-03-19T05:05:31;17.48;;;8.80;;
49962;SDS011;36180;57.678;11.910;2023-03-19T05:08:00;20.30;;;9.02;;
49962;SDS011;36180;57.678;11.910;2023-03-19T05:10:28;22.20;;;9.75;;
49962;SDS011;36180;57.678;11.910;2023-03-19T05:12:55;19.23;;;8.48;;
49962;SDS011;36180;57.678;11.910;2023-03-19T05:15:24;18.35;;;8.98;;
49962;SDS011;36180;57.678;11.910;2023-03-19T05:18:01;20.80;;;9.52;;
49962;SDS011;36180;57.678;11.910;2023-03-19T05:20:41;21.10;;;9.68;;
49962;SDS011;36180;57.678;11.910;2023-03-19T05:23:18;15.25;;;8.57;;
49962;SDS011;36180;57.678;11.910;2023-03-19T05:26:14;18.75;;;9.15;;
49962;SDS011;36180;57.678;11.910;2023-03-19T05:29:05;18.77;;;8.98;;
49962;SDS011;36180;57.678;11.910;2023-03-19T05:31:49;19.48;;;8.88;;
49962;SDS011;36180;57.678;11.910;2023-03-19T05:34:17;20.38;;;9.63;;
49962;SDS011;36180;57.678;11.910;2023-03-19T05:36:45;23.80;;;9.50;;
49962;SDS011;36180;57.678;11.910;2023-03-19T05:39:16;22.20;;;9.80;;
49962;SDS011;36180;57.678;11.910;2023-03-19T05:41:44;19.48;;;8.93;;
49962;SDS011;36180;57.678;11.910;2023-03-19T05:44:16;18.60;;;9.13;;
49962;SDS011;36180;57.678;11.910;2023-03-19T05:46:55;18.60;;;9.30;;
49962;SDS011;36180;57.678;11.910;2023-03-19T05:49:26;20.98;;;8.95;;
49962;SDS011;36180;57.678;11.910;2023-03-19T05:51:53;22.60;;;10.00;;
49962;SDS011;36180;57.678;11.910;2023-03-19T05:54:20;18.55;;;9.18;;
49962;SDS011;36180;57.678;11.910;2023-03-19T05:56:54;21.90;;;9.55;;
49962;SDS011;36180;57.678;11.910;2023-03-19T05:59:47;20.50;;;9.40;;
49962;SDS011;36180;57.678;11.910;2023-03-19T06:02:40;22.40;;;9.32;;
49962;SDS011;36180;57.678;11.910;2023-03-19T06:05:26;22.10;;;9.40;;
49962;SDS011;36180;57.678;11.910;2023-03-19T06:07:58;18.92;;;10.18;;
49962;SDS011;36180;57.678;11.910;2023-03-19T06:10:41;28.58;;;10.85;;
49962;SDS011;36180;57.678;11.910;2023-03-19T06:13:09;19.90;;;10.88;;
49962;SDS011;36180;57.678;11.910;2023-03-19T06:15:41;22.80;;;10.45;;
49962;SDS011;36180;57.678;11.910;2023-03-19T06:18:23;24.58;;;11.25;;
49962;SDS011;36180;57.678;11.910;2023-03-19T06:20:50;21.65;;;10.93;;
49962;SDS011;36180;57.678;11.910;2023-03-19T06:23:17;27.83;;;11.48;;
49962;SDS011;36180;57.678;11.910;2023-03-19T06:25:45;25.10;;;11.63;;
49962;SDS011;36180;57.678;11.910;2023-03-19T06:28:12;24.45;;;12.30;;
49962;SDS011;36180;57.678;11.910;2023-03-19T06:30:42;27.17;;;11.95;;
49962;SDS011;36180;57.678;11.910;2023-03-19T06:33:29;22.13;;;11.48;;
49962;SDS011;36180;57.678;11.910;2023-03-19T06:35:58;22.65;;;11.55;;
49962;SDS011;36180;57.678;11.910;2023-03-19T06:38:27;21.35;;;11.68;;
49962;SDS011;36180;57.678;11.910;2023-03-19T06:40:54;25.83;;;12.30;;
49962;SDS011;36180;57.678;11.910;2023-03-19T06:43:21;24.42;;;12.13;;
49962;SDS011;36180;57.678;11.910;2023-03-19T06:45:48;30.00;;;12.60;;
49962;SDS011;36180;57.678;11.910;2023-03-19T06:48:16;22.75;;;12.30;;
49962;SDS011;36180;57.678;11.910;2023-03-19T06:50:45;26.88;;;12.10;;
49962;SDS011;36180;57.678;11.910;2023-03-19T06:53:12;25.67;;;12.60;;
49962;SDS011;36180;57.678;11.910;2023-03-19T06:55:39;23.52;;;12.00;;
49962;SDS011;36180;57.678;11.910;2023-03-19T06:58:06;25.73;;;12.40;;
49962;SDS011;36180;57.678;11.910;2023-03-19T07:00:34;22.50;;;12.57;;
49962;SDS011;36180;57.678;11.910;2023-03-19T07:03:01;24.98;;;11.98;;
49962;SDS011;36180;57.678;11.910;2023-03-19T07:05:28;23.38;;;11.43;;
49962;SDS011;36180;57.678;11.910;2023-03-19T07:07:57;21.17;;;10.73;;
49962;SDS011;36180;57.678;11.910;2023-03-19T07:10:27;22.98;;;11.55;;
49962;SDS011;36180;57.678;11.910;2023-03-19T07:13:04;20.92;;;11.00;;
49962;SDS011;36180;57.678;11.910;2023-03-19T07:15:32;19.20;;;10.43;;
49962;SDS011;36180;57.678;11.910;2023-03-19T07:18:00;24.88;;;11.27;;
49962;SDS011;36180;57.678;11.910;2023-03-19T07:20:27;13.85;;;8.60;;
49962;SDS011;36180;57.678;11.910;2023-03-19T07:22:54;16.15;;;8.00;;
49962;SDS011;36180;57.678;11.910;2023-03-19T07:25:23;18.30;;;8.30;;
49962;SDS011;36180;57.678;11.910;2023-03-19T07:27:50;16.80;;;8.75;;
49962;SDS011;36180;57.678;11.910;2023-03-19T07:30:17;17.88;;;7.82;;
49962;SDS011;36180;57.678;11.910;2023-03-19T07:32:44;14.73;;;8.18;;
49962;SDS011;36180;57.678;11.910;2023-03-19T07:35:11;14.57;;;8.13;;
49962;SDS011;36180;57.678;11.910;2023-03-19T07:37:38;15.07;;;8.23;;
49962;SDS011;36180;57.678;11.910;2023-03-19T07:40:08;15.63;;;8.48;;
49962;SDS011;36180;57.678;11.910;2023-03-19T07:42:36;14.73;;;8.32;;
49962;SDS011;36180;57.678;11.910;2023-03-19T07:45:03;15.18;;;8.43;;
49962;SDS011;36180;57.678;11.910;2023-03-19T07:47:30;13.13;;;7.15;;
49962;SDS011;36180;57.678;11.910;2023-03-19T07:49:57;12.18;;;7.10;;
49962;SDS011;36180;57.678;11.910;2023-03-19T07:52:25;10.65;;;6.40;;
49962;SDS011;36180;57.678;11.910;2023-03-19T07:54:52;15.48;;;7.43;;
49962;SDS011;36180;57.678;11.910;2023-03-19T07:57:21;11.02;;;6.13;;
49962;SDS011;36180;57.678;11.910;2023-03-19T07:59:49;8.35;;;5.38;;
49962;SDS011;36180;57.678;11.910;2023-03-19T08:02:16;8.32;;;5.28;;
49962;SDS011;36180;57.678;11.910;2023-03-19T08:04:44;10.15;;;5.07;;
49962;SDS011;36180;57.678;11.910;2023-03-19T08:07:11;9.85;;;5.25;;
49962;SDS011;36180;57.678;11.910;2023-03-19T08:09:38;8.38;;;5.05;;
49962;SDS011;36180;57.678;11.910;2023-03-19T08:12:06;11.82;;;5.45;;
49962;SDS011;36180;57.678;11.910;2023-03-19T08:14:35;6.55;;;4.53;;
49962;SDS011;36180;57.678;11.910;2023-03-19T08:17:02;7.40;;;4.68;;
49962;SDS011;36180;57.678;11.910;2023-03-19T08:19:29;10.27;;;4.90;;
49962;SDS011;36180;57.678;11.910;2023-03-19T08:21:56;7.63;;;4.72;;
49962;SDS011;36180;57.678;11.910;2023-03-19T08:24:24;7.45;;;4.65;;
49962;SDS011;36180;57.678;11.910;2023-03-19T08:26:51;8.35;;;4.40;;
49962;SDS011;36180;57.678;11.910;2023-03-19T08:29:18;8.90;;;4.75;;
49962;SDS011;36180;57.678;11.910;2023-03-19T08:31:46;6.85;;;4.30;;
49962;SDS011;36180;57.678;11.910;2023-03-19T08:34:13;7.90;;;4.28;;
49962;SDS011;36180;57.678;11.910;2023-03-19T08:36:41;9.05;;;4.57;;
49962;SDS011;36180;57.678;11.910;2023-03-19T08:39:08;7.97;;;4.35;;
49962;SDS011;36180;57.678;11.910;2023-03-19T08:41:35;7.63;;;4.60;;
49962;SDS011;36180;57.678;11.910;2023-03-19T08:44:02;8.45;;;4.70;;
49962;SDS011;36180;57.678;11.910;2023-03-19T08:46:29;10.38;;;5.15;;
49962;SDS011;36180;57.678;11.910;2023-03-19T08:48:59;8.48;;;4.35;;
49962;SDS011;36180;57.678;11.910;2023-03-19T08:51:26;8.18;;;5.22;;
49962;SDS011;36180;57.678;11.910;2023-03-19T08:53:55;9.68;;;4.65;;
49962;SDS011;36180;57.678;11.910;2023-03-19T08:56:22;8.05;;;5.32;;
49962;SDS011;36180;57.678;11.910;2023-03-19T08:58:49;9.50;;;4.43;;
49962;SDS011;36180;57.678;11.910;2023-03-19T09:01:16;6.13;;;4.20;;
49962;SDS011;36180;57.678;11.910;2023-03-19T09:03:43;6.00;;;4.15;;
49962;SDS011;36180;57.678;11.910;2023-03-19T09:06:12;8.30;;;4.80;;
49962;SDS011;36180;57.678;11.910;2023-03-19T09:08:39;7.93;;;5.13;;
49962;SDS011;36180;57.678;11.910;2023-03-19T09:11:06;6.65;;;4.82;;
49962;SDS011;36180;57.678;11.910;2023-03-19T09:13:34;7.03;;;4.28;;
49962;SDS011;36180;57.678;11.910;2023-03-19T09:16:02;7.32;;;4.70;;
49962;SDS011;36180;57.678;11.910;2023-03-19T09:18:29;7.75;;;5.10;;
49962;SDS011;36180;57.678;11.910;2023-03-19T09:20:56;6.07;;;4.00;;
49962;SDS011;36180;57.678;11.910;2023-03-19T09:23:25;7.35;;;4.47;;
49962;SDS011;36180;57.678;11.910;2023-03-19T09:25:52;6.82;;;4.57;;
49962;SDS011;36180;57.678;11.910;2023-03-19T09:28:19;6.95;;;4.07;;
49962;SDS011;36180;57.678;11.910;2023-03-19T09:30:47;7.38;;;4.53;;
49962;SDS011;36180;57.678;11.910;2023-03-19T09:33:16;6.78;;;4.10;;
49962;SDS011;36180;57.678;11.910;2023-03-19T09:35:47;7.07;;;4.03;;
49962;SDS011;36180;57.678;11.910;2023-03-19T09:38:16;6.65;;;4.28;;
49962;SDS011;36180;57.678;11.910;2023-03-19T09:40:45;5.90;;;4.20;;
49962;SDS011;36180;57.678;11.910;2023-03-19T09:43:23;4.93;;;3.67;;
49962;SDS011;36180;57.678;11.910;2023-03-19T09:45:58;5.35;;;3.80;;
49962;SDS011;36180;57.678;11.910;2023-03-19T09:48:28;5.80;;;3.63;;
49962;SDS011;36180;57.678;11.910;2023-03-19T09:50:59;6.13;;;3.88;;
49962;SDS011;36180;57.678;11.910;2023-03-19T09:53:29;5.53;;;4.00;;
49962;SDS011;36180;57.678;11.910;2023-03-19T09:56:06;5.65;;;4.10;;
49962;SDS011;36180;57.678;11.910;2023-03-19T09:58:34;4.88;;;4.30;;
49962;SDS011;36180;57.678;11.910;2023-03-19T10:01:02;5.78;;;4.10;;
49962;SDS011;36180;57.678;11.910;2023-03-19T10:03:32;6.03;;;4.43;;
49962;SDS011;36180;57.678;11.910;2023-03-19T10:06:12;5.90;;;4.00;;
49962;SDS011;36180;57.678;11.910;2023-03-19T10:08:52;7.05;;;4.00;;
49962;SDS011;36180;57.678;11.910;2023-03-19T10:11:36;6.15;;;3.83;;
49962;SDS011;36180;57.678;11.910;2023-03-19T10:14:17;6.93;;;4.63;;
49962;SDS011;36180;57.678;11.910;2023-03-19T10:16:55;7.80;;;4.68;;
49962;SDS011;36180;57.678;11.910;2023-03-19T10:19:26;6.20;;;4.43;;
49962;SDS011;36180;57.678;11.910;2023-03-19T10:22:06;7.40;;;4.83;;
49962;SDS011;36180;57.678;11.910;2023-03-19T10:24:37;8.07;;;5.28;;
49962;SDS011;36180;57.678;11.910;2023-03-19T10:27:09;8.20;;;4.88;;
49962;SDS011;36180;57.678;11.910;2023-03-19T10:29:38;7.03;;;5.18;;
49962;SDS011;36180;57.678;11.910;2023-03-19T10:32:06;7.93;;;5.00;;
49962;SDS011;36180;57.678;11.910;2023-03-19T10:34:43;9.43;;;4.80;;
49962;SDS011;36180;57.678;11.910;2023-03-19T10:37:13;6.20;;;4.82;;
49962;SDS011;36180;57.678;11.910;2023-03-19T10:39:42;7.95;;;5.57;;
49962;SDS011;36180;57.678;11.910;2023-03-19T10:42:17;7.20;;;5.18;;
49962;SDS011;36180;57.678;11.910;2023-03-19T10:45:02;5.37;;;4.13;;
49962;SDS011;36180;57.678;11.910;2023-03-19T10:47:34;6.82;;;5.13;;
49962;SDS011;36180;57.678;11.910;2023-03-19T10:52:31;6.63;;;4.85;;
49962;SDS011;36180;57.678;11.910;2023-03-19T10:55:01;8.13;;;5.50;;
49962;SDS011;36180;57.678;11.910;2023-03-19T10:57:32;7.65;;;4.95;;
49962;SDS011;36180;57.678;11.910;2023-03-19T11:00:01;5.97;;;4.78;;
49962;SDS011;36180;57.678;11.910;2023-03-19T11:02:29;7.40;;;5.30;;
49962;SDS011;36180;57.678;11.910;2023-03-19T11:05:08;6.75;;;5.03;;
49962;SDS011;36180;57.678;11.910;2023-03-19T11:07:49;7.65;;;4.93;;
49962;SDS011;36180;57.678;11.910;2023-03-19T11:10:17;6.10;;;4.50;;
49962;SDS011;36180;57.678;11.910;2023-03-19T11:12:50;6.28;;;4.70;;
49962;SDS011;36180;57.678;11.910;2023-03-19T11:15:21;6.53;;;4.90;;
49962;SDS011;36180;57.678;11.910;2023-03-19T11:17:54;6.32;;;4.80;;
49962;SDS011;36180;57.678;11.910;2023-03-19T11:20:26;7.82;;;5.38;;
49962;SDS011;36180;57.678;11.910;2023-03-19T11:22:56;7.57;;;4.90;;
49962;SDS011;36180;57.678;11.910;2023-03-19T11:25:27;7.43;;;5.32;;
49962;SDS011;36180;57.678;11.910;2023-03-19T11:28:00;7.00;;;5.20;;
49962;SDS011;36180;57.678;11.910;2023-03-19T11:30:31;6.72;;;5.25;;
49962;SDS011;36180;57.678;11.910;2023-03-19T11:33:15;6.90;;;4.72;;
49962;SDS011;36180;57.678;11.910;2023-03-19T11:36:13;8.55;;;5.07;;
49962;SDS011;36180;57.678;11.910;2023-03-19T11:38:49;6.68;;;4.55;;
49962;SDS011;36180;57.678;11.910;2023-03-19T11:41:41;6.93;;;4.85;;
49962;SDS011;36180;57.678;11.910;2023-03-19T11:44:17;5.68;;;4.35;;
49962;SDS011;36180;57.678;11.910;2023-03-19T11:46:46;6.95;;;4.30;;
49962;SDS011;36180;57.678;11.910;2023-03-19T11:52:12;6.55;;;4.65;;
49962;SDS011;36180;57.678;11.910;2023-03-19T11:54:43;5.20;;;4.05;;
49962;SDS011;36180;57.678;11.910;2023-03-19T11:57:21;6.32;;;4.13;;
49962;SDS011;36180;57.678;11.910;2023-03-19T11:59:58;4.70;;;3.72;;
49962;SDS011;36180;57.678;11.910;2023-03-19T12:02:55;5.97;;;4.50;;
49962;SDS011;36180;57.678;11.910;2023-03-19T12:05:43;6.07;;;4.72;;
49962;SDS011;36180;57.678;11.910;2023-03-19T12:08:21;5.55;;;4.10;;
49962;SDS011;36180;57.678;11.910;2023-03-19T12:11:06;4.88;;;3.80;;
49962;SDS011;36180;57.678;11.910;2023-03-19T12:13:46;5.18;;;3.80;;
49962;SDS011;36180;57.678;11.910;2023-03-19T12:16:25;6.28;;;4.60;;
49962;SDS011;36180;57.678;11.910;2023-03-19T12:19:07;7.82;;;4.47;;
49962;SDS011;36180;57.678;11.910;2023-03-19T12:21:59;5.45;;;3.60;;
49962;SDS011;36180;57.678;11.910;2023-03-19T12:24:35;6.35;;;4.30;;
49962;SDS011;36180;57.678;11.910;2023-03-19T12:27:14;4.63;;;3.80;;
49962;SDS011;36180;57.678;11.910;2023-03-19T12:29:49;4.57;;;4.07;;
49962;SDS011;36180;57.678;11.910;2023-03-19T12:32:26;7.18;;;4.55;;
49962;SDS011;36180;57.678;11.910;2023-03-19T12:35:03;5.65;;;3.65;;
49962;SDS011;36180;57.678;11.910;2023-03-19T12:40:05;5.25;;;4.30;;
49962;SDS011;36180;57.678;11.910;2023-03-19T12:42:40;7.22;;;4.70;;
49962;SDS011;36180;57.678;11.910;2023-03-19T12:45:12;7.38;;;4.60;;
49962;SDS011;36180;57.678;11.910;2023-03-19T12:47:46;5.07;;;4.22;;
49962;SDS011;36180;57.678;11.910;2023-03-19T12:50:14;5.97;;;4.35;;
49962;SDS011;36180;57.678;11.910;2023-03-19T12:52:44;7.30;;;5.22;;
49962;SDS011;36180;57.678;11.910;2023-03-19T12:55:16;5.10;;;4.40;;
49962;SDS011;36180;57.678;11.910;2023-03-19T12:57:45;5.78;;;4.95;;
49962;SDS011;36180;57.678;11.910;2023-03-19T13:00:16;6.07;;;4.60;;
49962;SDS011;36180;57.678;11.910;2023-03-19T13:02:49;6.40;;;4.55;;
49962;SDS011;36180;57.678;11.910;2023-03-19T13:05:22;7.78;;;4.15;;
49962;SDS011;36180;57.678;11.910;2023-03-19T13:07:57;6.43;;;4.60;;
49962;SDS011;36180;57.678;11.910;2023-03-19T13:10:26;6.50;;;4.55;;
49962;SDS011;36180;57.678;11.910;2023-03-19T13:12:55;6.25;;;5.00;;
49962;SDS011;36180;57.678;11.910;2023-03-19T13:15:24;7.30;;;4.50;;
49962;SDS011;36180;57.678;11.910;2023-03-19T13:18:00;6.47;;;4.88;;
49962;SDS011;36180;57.678;11.910;2023-03-19T13:20:35;5.65;;;4.82;;
49962;SDS011;36180;57.678;11.910;2023-03-19T13:23:11;6.50;;;4.43;;
49962;SDS011;36180;57.678;11.910;2023-03-19T13:25:41;5.65;;;4.93;;
49962;SDS011;36180;57.678;11.910;2023-03-19T13:28:10;6.78;;;4.75;;
49962;SDS011;36180;57.678;11.910;2023-03-19T13:30:38;6.45;;;5.45;;
49962;SDS011;36180;57.678;11.910;2023-03-19T13:33:12;7.18;;;4.97;;
49962;SDS011;36180;57.678;11.910;2023-03-19T13:35:43;7.03;;;5.13;;
49962;SDS011;36180;57.678;11.910;2023-03-19T13:38:14;7.22;;;5.13;;
49962;SDS011;36180;57.678;11.910;2023-03-19T13:40:44;6.55;;;4.93;;
49962;SDS011;36180;57.678;11.910;2023-03-19T13:43:38;7.60;;;5.57;;
49962;SDS011;36180;57.678;11.910;2023-03-19T13:55:18;11.10;;;7.50;;
49962;SDS011;36180;57.678;11.910;2023-03-19T13:57:57;11.25;;;7.45;;
49962;SDS011;36180;57.678;11.910;2023-03-19T14:00:54;10.40;;;7.82;;
49962;SDS011;36180;57.678;11.910;2023-03-19T14:03:23;14.77;;;8.82;;
49962;SDS011;36180;57.678;11.910;2023-03-19T14:05:53;12.07;;;8.45;;
49962;SDS011;36180;57.678;11.910;2023-03-19T14:08:22;14.05;;;9.05;;
49962;SDS011;36180;57.678;11.910;2023-03-19T14:10:51;12.98;;;8.40;;
49962;SDS011;36180;57.678;11.910;2023-03-19T14:13:22;11.77;;;7.97;;
49962;SDS011;36180;57.678;11.910;2023-03-19T14:15:59;14.68;;;8.90;;
49962;SDS011;36180;57.678;11.910;2023-03-19T14:18:30;14.15;;;9.38;;
49962;SDS011;36180;57.678;11.910;2023-03-19T14:20:59;13.88;;;9.52;;
49962;SDS011;36180;57.678;11.910;2023-03-19T14:23:29;14.05;;;10.40;;
49962;SDS011;36180;57.678;11.910;2023-03-19T14:26:00;16.85;;;10.75;;
49962;SDS011;36180;57.678;11.910;2023-03-19T14:28:35;11.27;;;8.65;;
49962;SDS011;36180;57.678;11.910;2023-03-19T14:31:04;14.68;;;10.10;;
49962;SDS011;36180;57.678;11.910;2023-03-19T14:33:35;16.25;;;10.18;;
49962;SDS011;36180;57.678;11.910;2023-03-19T14:36:09;13.65;;;9.45;;
49962;SDS011;36180;57.678;11.910;2023-03-19T14:38:42;11.07;;;8.95;;
49962;SDS011;36180;57.678;11.910;2023-03-19T14:41:15;12.82;;;9.13;;
49962;SDS011;36180;57.678;11.910;2023-03-19T14:43:49;12.85;;;9.88;;
49962;SDS011;36180;57.678;11.910;2023-03-19T14:46:27;12.63;;;8.93;;
49962;SDS011;36180;57.678;11.910;2023-03-19T14:49:14;16.48;;;11.20;;
49962;SDS011;36180;57.678;11.910;2023-03-19T14:51:58;20.73;;;14.82;;
49962;SDS011;36180;57.678;11.910;2023-03-19T14:54:29;21.42;;;14.68;;
49962;SDS011;36180;57.678;11.910;2023-03-19T14:57:04;27.20;;;17.30;;
49962;SDS011;36180;57.678;11.910;2023-03-19T14:59:36;23.67;;;16.77;;
49962;SDS011;36180;57.678;11.910;2023-03-19T15:02:16;28.10;;;17.58;;